Time;durP1;ratioP1;P1;durP2;ratioP2;P2;SDS_P1;SDS_P2;PMS_P1;PMS_P2;Temp;Humidity;BMP_temperature;BMP_pressure;BME280_temperature;BME280_humidity;BME280_pressure;Samples;Min_cycle;Max_cycle;Signal;HPM_P1;HPM_P2
2024/01/28 00:02:22;;;;;;;5.57;2.13;;;;;;;6.19;58.91;100548.19;5115286;28;20194;-70
2024/01/28 00:04:48;;;;;;;3.17;2.30;;;;;;;6.18;58.74;100546.53;5115325;28;20191;-69
2024/01/28 00:07:16;;;;;;;2.53;2.37;;;;;;;6.07;59.96;100546.69;5114864;28;20189;-69
2024/01/28 00:09:43;;;;;;;3.10;2.40;;;;;;;6.21;59.24;100548.88;5115045;28;20259;-69
2024/01/28 00:12:10;;;;;;;4.70;2.47;;;;;;;6.12;59.75;100533.91;5114866;28;20613;-71
2024/01/28 00:14:37;;;;;;;2.73;2.50;;;;;;;6.08;59.81;100538.63;5114649;28;20197;-71
2024/01/28 00:17:04;;;;;;;2.10;2.00;;;;;;;6.17;59.94;100540.44;5114815;28;20269;-71
2024/01/28 00:19:30;;;;;;;2.70;2.50;;;;;;;6.10;59.63;100531.41;5114822;28;20283;-71
2024/01/28 00:21:57;;;;;;;2.57;2.37;;;;;;;6.20;60.10;100526.94;5114779;28;20244;-70
2024/01/28 00:24:25;;;;;;;3.80;2.20;;;;;;;6.20;60.01;100531.41;5114459;28;20253;-70
2024/01/28 00:26:52;;;;;;;5.63;2.80;;;;;;;6.23;60.15;100531.94;5115083;28;20191;-70
2024/01/28 00:29:19;;;;;;;3.50;3.20;;;;;;;6.13;61.16;100540.84;5114670;28;20221;-70
2024/01/28 00:31:46;;;;;;;2.67;2.57;;;;;;;6.12;60.50;100552.38;5114271;28;20238;-71
2024/01/28 00:34:13;;;;;;;3.80;3.50;;;;;;;6.14;61.15;100559.19;5114541;28;20198;-70
2024/01/28 00:36:39;;;;;;;2.90;2.43;;;;;;;6.05;60.93;100560.03;5114407;28;20221;-72
2024/01/28 00:39:06;;;;;;;2.80;2.60;;;;;;;5.93;61.95;100570.88;5114563;28;20574;-70
2024/01/28 00:41:34;;;;;;;2.50;2.40;;;;;;;5.96;61.64;100566.13;5114912;28;20294;-71
2024/01/28 00:44:02;;;;;;;2.43;2.30;;;;;;;5.88;62.00;100567.81;5114574;28;20222;-69
2024/01/28 00:46:29;;;;;;;2.93;2.73;;;;;;;5.87;62.44;100569.63;5114004;28;20190;-70
2024/01/28 00:48:55;;;;;;;3.23;2.97;;;;;;;5.79;62.85;100574.72;5114252;28;20723;-70
2024/01/28 00:51:22;;;;;;;3.77;3.33;;;;;;;5.73;63.18;100581.38;5114510;28;20219;-71
2024/01/28 00:53:49;;;;;;;2.93;2.73;;;;;;;5.75;63.17;100568.06;5114190;28;20191;-72
2024/01/28 00:56:17;;;;;;;5.30;3.10;;;;;;;5.75;63.18;100573.31;5114163;28;20265;-72
2024/01/28 00:58:46;;;;;;;4.03;2.63;;;;;;;5.85;62.97;100586.53;5114084;28;20188;-72
2024/01/28 01:01:13;;;;;;;5.07;3.30;;;;;;;5.86;62.87;100577.66;5114119;28;20253;-70
2024/01/28 01:03:39;;;;;;;2.80;2.60;;;;;;;5.75;63.05;100579.44;5114217;28;20223;-71
2024/01/28 01:06:07;;;;;;;4.40;4.00;;;;;;;5.82;62.30;100578.91;5113695;28;20198;-71
2024/01/28 01:08:34;;;;;;;6.27;3.80;;;;;;;5.77;62.29;100572.22;5113725;28;20195;-72
2024/01/28 01:11:03;;;;;;;4.30;3.87;;;;;;;5.73;62.85;100589.28;5113564;28;20707;-70
2024/01/28 01:13:30;;;;;;;4.60;4.20;;;;;;;5.86;62.30;100581.13;5113922;28;20194;-70
2024/01/28 01:15:58;;;;;;;3.97;2.80;;;;;;;5.74;62.40;100583.06;5113709;28;20194;-71
2024/01/28 01:18:25;;;;;;;6.10;2.47;;;;;;;5.69;63.13;100577.34;5113810;28;20252;-71
2024/01/28 01:20:52;;;;;;;4.33;2.93;;;;;;;5.69;62.84;100564.16;5113503;28;20243;-71
2024/01/28 01:23:19;;;;;;;2.67;2.43;;;;;;;5.75;63.13;100574.16;5113320;28;20724;-72
2024/01/28 01:25:46;;;;;;;3.23;2.93;;;;;;;5.81;62.93;100582.53;5113431;28;20634;-71
2024/01/28 01:28:13;;;;;;;4.23;2.73;;;;;;;5.67;63.13;100576.66;5113495;28;20192;-71
2024/01/28 01:30:40;;;;;;;4.37;3.03;;;;;;;5.72;63.16;100579.72;5113580;28;20277;-70
2024/01/28 01:33:08;;;;;;;2.93;2.73;;;;;;;5.78;62.78;100587.09;5113402;28;20567;-71
2024/01/28 01:35:36;;;;;;;3.20;3.00;;;;;;;5.79;62.97;100583.47;5113350;28;20203;-71
2024/01/28 01:38:02;;;;;;;2.70;2.50;;;;;;;5.82;63.02;100579.75;5113330;28;20190;-71
2024/01/28 01:40:29;;;;;;;2.70;2.30;;;;;;;5.87;62.75;100577.53;5113344;28;20228;-72
2024/01/28 01:42:56;;;;;;;3.07;2.77;;;;;;;5.84;63.12;100580.44;5113054;28;20656;-70
2024/01/28 01:45:23;;;;;;;2.27;2.17;;;;;;;5.84;63.02;100583.06;5113133;28;20317;-70
2024/01/28 01:47:50;;;;;;;3.43;3.20;;;;;;;5.75;63.38;100573.31;5112855;28;20190;-71
2024/01/28 01:50:18;;;;;;;3.40;1.93;;;;;;;5.69;63.61;100568.63;5113046;28;20239;-71
2024/01/28 01:52:45;;;;;;;2.73;2.53;;;;;;;5.65;63.91;100583.88;5112808;28;20190;-71
2024/01/28 01:55:13;;;;;;;2.60;2.40;;;;;;;5.64;64.15;100581.41;5112695;28;20259;-71
2024/01/28 01:57:42;;;;;;;4.10;2.67;;;;;;;5.68;64.09;100588.88;5112678;28;20191;-72
2024/01/28 02:00:12;;;;;;;3.00;2.70;;;;;;;5.73;63.61;100599.81;5112593;28;20190;-72
2024/01/28 02:02:41;;;;;;;2.57;2.20;;;;;;;5.81;63.96;100590.44;5112800;28;20196;-72
2024/01/28 02:05:08;;;;;;;2.17;2.00;;;;;;;5.81;64.16;100603.63;5112902;28;20190;-72
2024/01/28 02:07:36;;;;;;;3.27;2.60;;;;;;;5.83;63.48;100594.59;5112297;28;20196;-72
2024/01/28 02:10:05;;;;;;;2.40;2.20;;;;;;;5.68;63.89;100594.13;5112907;28;20193;-71
2024/01/28 02:12:32;;;;;;;3.63;3.07;;;;;;;5.71;63.49;100593.03;5113032;28;20228;-71
2024/01/28 02:15:06;;;;;;;2.70;2.50;;;;;;;5.74;63.57;100598.03;5112441;28;20192;-70
2024/01/28 02:17:33;;;;;;;4.50;3.30;;;;;;;5.69;64.09;100598.44;5112969;28;20188;-71
2024/01/28 02:20:00;;;;;;;3.50;2.93;;;;;;;5.67;63.84;100610.94;5111872;28;20681;-71
2024/01/28 02:22:27;;;;;;;3.80;2.37;;;;;;;5.59;64.08;100615.22;5112333;28;20257;-71
2024/01/28 02:24:55;;;;;;;3.50;2.60;;;;;;;5.61;64.15;100608.81;5112885;28;20349;-71
2024/01/28 02:27:22;;;;;;;3.73;3.37;;;;;;;5.58;64.24;100618.81;5112126;28;20231;-71
2024/01/28 02:29:48;;;;;;;2.37;2.23;;;;;;;5.59;63.96;100610.78;5112357;28;20241;-71
2024/01/28 02:32:16;;;;;;;3.43;3.13;;;;;;;5.61;63.49;100615.91;5111660;28;20722;-70
2024/01/28 02:34:44;;;;;;;3.00;2.90;;;;;;;5.59;63.43;100626.59;5112387;28;20195;-71
2024/01/28 02:37:11;;;;;;;3.43;3.13;;;;;;;5.55;63.66;100625.22;5112197;28;20203;-71
2024/01/28 02:39:38;;;;;;;3.20;2.90;;;;;;;5.51;63.80;100618.53;5112038;28;20192;-71
2024/01/28 02:42:06;;;;;;;3.10;2.90;;;;;;;5.56;63.73;100626.03;5112286;28;20765;-70
2024/01/28 02:44:33;;;;;;;4.03;2.30;;;;;;;5.42;64.40;100614.09;5111844;28;20194;-69
2024/01/28 02:47:01;;;;;;;3.77;2.87;;;;;;;5.39;64.08;100619.63;5111821;28;20193;-70
2024/01/28 02:49:28;;;;;;;5.43;3.07;;;;;;;5.39;64.77;100624.91;5112381;28;20245;-70
2024/01/28 02:51:55;;;;;;;3.20;3.00;;;;;;;5.33;65.07;100625.44;5111985;28;20295;-70
2024/01/28 02:54:22;;;;;;;2.67;2.50;;;;;;;5.32;65.30;100622.94;5112272;28;20191;-70
2024/01/28 02:56:49;;;;;;;4.03;2.80;;;;;;;5.32;65.88;100629.03;5112386;28;20284;-69
2024/01/28 02:59:17;;;;;;;2.50;2.40;;;;;;;5.24;65.91;100626.22;5112100;28;20195;-70
2024/01/28 03:01:47;;;;;;;3.50;2.90;;;;;;;5.19;66.13;100628.44;5111967;28;20196;-71
2024/01/28 03:04:14;;;;;;;3.57;2.57;;;;;;;5.14;66.93;100628.03;5111823;28;20190;-70
2024/01/28 03:06:41;;;;;;;2.90;2.80;;;;;;;5.14;66.90;100629.81;5112406;28;20196;-70
2024/01/28 03:09:08;;;;;;;3.37;3.03;;;;;;;5.13;67.16;100629.00;5111833;28;20252;-70
2024/01/28 03:11:34;;;;;;;3.73;3.33;;;;;;;5.09;67.00;100640.75;5111740;28;20223;-70
2024/01/28 03:14:01;;;;;;;3.63;2.70;;;;;;;4.94;68.08;100634.19;5111736;28;20191;-70
2024/01/28 03:16:29;;;;;;;4.93;2.57;;;;;;;5.00;67.74;100638.09;5111517;28;20665;-70
2024/01/28 03:18:56;;;;;;;5.50;3.07;;;;;;;4.92;68.26;100636.13;5111385;28;20203;-70
2024/01/28 03:21:23;;;;;;;3.13;2.83;;;;;;;4.92;68.08;100640.53;5111775;28;20563;-70
2024/01/28 03:23:50;;;;;;;3.40;3.10;;;;;;;4.82;68.75;100637.88;5111690;28;20195;-71
2024/01/28 03:26:18;;;;;;;3.67;3.00;;;;;;;4.93;68.56;100647.47;5111646;28;20188;-70
2024/01/28 03:28:44;;;;;;;3.20;3.00;;;;;;;4.86;68.92;100644.53;5111990;28;20282;-71
2024/01/28 03:31:11;;;;;;;2.80;2.60;;;;;;;4.90;68.53;100648.56;5113244;28;20676;-70
2024/01/28 03:33:39;;;;;;;3.10;2.80;;;;;;;4.85;68.81;100656.03;5115597;28;20190;-70
2024/01/28 03:36:07;;;;;;;3.70;3.40;;;;;;;4.88;69.05;100645.25;5115637;28;20189;-70
2024/01/28 03:38:34;;;;;;;4.40;3.20;;;;;;;4.91;69.04;100647.59;5115753;28;20195;-70
2024/01/28 03:41:01;;;;;;;2.73;2.53;;;;;;;4.84;68.62;100649.13;5115308;28;20706;-70
2024/01/28 03:43:28;;;;;;;5.03;2.73;;;;;;;4.80;69.57;100641.59;5115295;28;20700;-71
2024/01/28 03:45:54;;;;;;;2.57;2.37;;;;;;;4.75;69.38;100647.25;5115462;28;20687;-70
2024/01/28 03:48:21;;;;;;;2.87;2.77;;;;;;;4.82;68.96;100652.84;5115616;28;20191;-71
2024/01/28 03:50:49;;;;;;;4.17;3.17;;;;;;;4.89;68.57;100652.19;5115125;28;20635;-70
2024/01/28 03:53:16;;;;;;;3.07;2.80;;;;;;;4.89;68.74;100652.19;5115552;28;20202;-70
2024/01/28 03:55:45;;;;;;;3.30;2.97;;;;;;;4.80;68.99;100663.50;5115236;28;20666;-70
2024/01/28 03:58:12;;;;;;;2.93;2.60;;;;;;;4.81;68.48;100659.91;5114968;28;20517;-70
2024/01/28 04:00:39;;;;;;;3.40;2.80;;;;;;;4.80;68.91;100663.50;5115527;28;20200;-70
2024/01/28 04:03:06;;;;;;;4.87;2.60;;;;;;;4.78;68.39;100660.16;5114936;28;20733;-70
2024/01/28 04:05:33;;;;;;;3.03;2.73;;;;;;;4.80;68.14;100658.22;5115336;28;20198;-70
2024/01/28 04:08:02;;;;;;;4.13;3.70;;;;;;;4.88;67.79;100668.94;5114791;28;20274;-71
2024/01/28 04:10:28;;;;;;;3.33;3.03;;;;;;;4.88;67.61;100674.22;5114946;28;20243;-71
2024/01/28 04:12:55;;;;;;;6.10;3.00;;;;;;;4.90;67.60;100677.53;5114597;28;20273;-72
2024/01/28 04:15:22;;;;;;;3.60;3.10;;;;;;;4.92;67.70;100678.25;5114424;28;20191;-71
2024/01/28 04:17:48;;;;;;;4.53;3.43;;;;;;;4.92;67.17;100685.28;5114484;28;20306;-71
2024/01/28 04:20:15;;;;;;;2.63;2.37;;;;;;;4.99;66.86;100687.25;5114272;28;20222;-71
2024/01/28 04:22:42;;;;;;;2.63;2.20;;;;;;;5.00;66.54;100690.75;5114394;28;20553;-71
2024/01/28 04:25:10;;;;;;;2.80;2.60;;;;;;;5.03;66.38;100691.31;5114997;28;20190;-71
2024/01/28 04:27:37;;;;;;;3.07;2.10;;;;;;;5.08;65.76;100693.56;5114471;28;20556;-71
2024/01/28 04:30:05;;;;;;;3.83;2.70;;;;;;;5.10;65.59;100695.09;5114691;28;20248;-71
2024/01/28 04:32:32;;;;;;;3.93;2.50;;;;;;;5.04;65.84;100702.69;5114388;28;20261;-71
2024/01/28 04:34:59;;;;;;;4.30;2.47;;;;;;;5.08;65.49;100698.81;5114560;28;20622;-71
2024/01/28 04:37:27;;;;;;;2.73;2.20;;;;;;;5.08;65.24;100702.28;5114215;28;20640;-71
2024/01/28 04:39:54;;;;;;;3.17;2.30;;;;;;;5.01;65.19;100698.50;5113924;28;20206;-69
2024/01/28 04:42:23;;;;;;;2.57;2.43;;;;;;;5.09;65.02;100701.31;5113290;28;20190;-73
2024/01/28 04:44:50;;;;;;;2.60;2.40;;;;;;;5.10;65.21;100708.25;5114614;28;20186;-70
2024/01/28 04:47:16;;;;;;;2.67;2.47;;;;;;;5.08;64.82;100711.97;5114424;28;20191;-70
2024/01/28 04:49:43;;;;;;;5.83;3.13;;;;;;;5.09;65.18;100717.13;5114391;28;20240;-70
2024/01/28 04:52:10;;;;;;;2.57;2.47;;;;;;;5.13;64.86;100715.91;5113425;28;20811;-70
2024/01/28 04:54:37;;;;;;;2.63;2.43;;;;;;;5.06;65.22;100720.00;5113016;28;20186;-71
2024/01/28 04:57:05;;;;;;;3.60;2.87;;;;;;;4.99;65.86;100723.31;5114108;28;20192;-70
2024/01/28 04:59:33;;;;;;;2.43;2.23;;;;;;;4.88;65.92;100716.31;5113655;28;20198;-70
2024/01/28 05:02:00;;;;;;;2.80;2.60;;;;;;;4.85;66.06;100729.75;5113612;28;20248;-70
2024/01/28 05:04:26;;;;;;;3.90;2.87;;;;;;;4.90;65.91;100732.81;5111959;28;20220;-70
2024/01/28 05:06:53;;;;;;;2.73;2.53;;;;;;;4.83;66.40;100742.19;5113932;28;20235;-70
2024/01/28 05:09:20;;;;;;;3.60;2.27;;;;;;;4.87;65.88;100756.75;5113374;28;20210;-70
2024/01/28 05:11:47;;;;;;;3.83;2.80;;;;;;;4.85;65.92;100753.44;5113975;28;20226;-70
2024/01/28 05:14:14;;;;;;;3.37;3.07;;;;;;;4.87;66.51;100754.13;5113326;28;20247;-70
2024/01/28 05:16:47;;;;;;;3.23;3.03;;;;;;;4.95;66.27;100756.94;5113661;28;20203;-70
2024/01/28 05:19:13;;;;;;;5.10;3.03;;;;;;;4.90;65.71;100756.50;5113838;28;20191;-70
2024/01/28 05:21:40;;;;;;;3.07;2.90;;;;;;;4.92;65.92;100764.28;5113587;28;20228;-70
2024/01/28 05:24:07;;;;;;;3.53;3.23;;;;;;;4.98;65.45;100761.09;5113577;28;20187;-70
2024/01/28 05:26:34;;;;;;;5.17;3.13;;;;;;;4.98;65.57;100761.97;5113544;28;20190;-70
2024/01/28 05:29:05;;;;;;;3.30;3.00;;;;;;;4.87;65.68;100764.66;5113411;28;20762;-70
2024/01/28 05:31:32;;;;;;;4.87;3.37;;;;;;;4.85;65.57;100766.59;5113464;28;20205;-71
2024/01/28 05:34:01;;;;;;;2.97;2.77;;;;;;;4.88;65.84;100776.03;5113216;28;20616;-70
2024/01/28 05:36:28;;;;;;;3.00;2.80;;;;;;;4.90;65.03;100764.41;5113045;28;20665;-70
2024/01/28 05:38:55;;;;;;;5.00;3.73;;;;;;;5.01;65.00;100782.78;5113253;28;20199;-70
2024/01/28 05:41:22;;;;;;;3.40;3.10;;;;;;;4.96;65.41;100777.06;5113198;28;20313;-70
2024/01/28 05:43:49;;;;;;;7.03;3.60;;;;;;;5.00;65.24;100781.09;5112872;28;20190;-71
2024/01/28 05:46:15;;;;;;;4.17;3.33;;;;;;;4.97;65.13;100776.09;5112939;28;20202;-75
2024/01/28 05:48:42;;;;;;;3.57;3.27;;;;;;;4.94;65.09;100781.59;5113048;28;20646;-75
2024/01/28 05:51:10;;;;;;;4.57;3.63;;;;;;;4.90;65.30;100785.47;5113158;28;20255;-76
2024/01/28 05:53:37;;;;;;;3.43;3.13;;;;;;;4.79;65.69;100788.16;5112148;28;20218;-74
2024/01/28 05:56:06;;;;;;;3.27;2.70;;;;;;;4.82;65.52;100787.09;5112610;28;20654;-74
2024/01/28 05:58:32;;;;;;;3.63;2.93;;;;;;;4.89;65.49;100789.06;5112774;28;20679;-73
2024/01/28 06:01:03;;;;;;;4.07;3.07;;;;;;;4.88;66.08;100789.19;5112246;28;20245;-73
2024/01/28 06:03:30;;;;;;;4.57;3.50;;;;;;;4.80;65.73;100789.84;5112497;28;20693;-73
2024/01/28 06:05:57;;;;;;;5.57;3.07;;;;;;;4.69;66.54;100787.25;5111727;28;20654;-76
2024/01/28 06:08:25;;;;;;;4.97;3.13;;;;;;;4.77;66.13;100794.50;5112310;28;20255;-75
2024/01/28 06:10:52;;;;;;;4.80;3.23;;;;;;;4.82;66.02;100790.53;5111723;28;20200;-74
2024/01/28 06:13:19;;;;;;;8.03;4.03;;;;;;;4.76;66.57;100795.47;5112040;28;20214;-74
2024/01/28 06:15:45;;;;;;;8.43;5.00;;;;;;;4.76;66.38;100798.09;5112574;28;20211;-74
2024/01/28 06:18:12;;;;;;;4.07;3.07;;;;;;;4.80;65.84;100789.84;5112044;28;20724;-75
2024/01/28 06:20:39;;;;;;;3.00;2.80;;;;;;;4.89;66.10;100804.84;5112312;28;20238;-74
2024/01/28 06:23:05;;;;;;;3.80;3.60;;;;;;;4.85;66.07;100803.44;5112394;28;20199;-73
2024/01/28 06:25:33;;;;;;;4.50;4.03;;;;;;;4.95;65.75;100806.97;5112165;28;20225;-74
2024/01/28 06:28:00;;;;;;;7.27;3.60;;;;;;;5.12;65.13;100808.19;5111402;28;20266;-76
2024/01/28 06:30:29;;;;;;;13.13;8.20;;;;;;;5.35;64.43;100822.88;5111768;28;20217;-77
2024/01/28 06:32:55;;;;;;;10.90;6.23;;;;;;;5.64;63.52;100823.88;5111575;28;20222;-74
2024/01/28 06:35:22;;;;;;;4.40;4.00;;;;;;;5.85;62.50;100808.84;5111207;28;20254;-75
2024/01/28 06:37:49;;;;;;;4.67;4.37;;;;;;;6.15;61.22;100818.50;5111715;28;20255;-74
2024/01/28 06:40:16;;;;;;;4.27;3.60;;;;;;;6.36;60.74;100811.34;5111332;28;20219;-74
2024/01/28 06:42:44;;;;;;;9.00;4.03;;;;;;;6.58;59.54;100822.47;5111240;28;20193;-74
2024/01/28 06:45:10;;;;;;;3.43;3.03;;;;;;;6.76;59.21;100833.16;5111289;28;20192;-74
2024/01/28 06:47:37;;;;;;;7.93;5.73;;;;;;;6.97;58.07;100829.41;5110962;28;20289;-73
2024/01/28 06:50:05;;;;;;;4.50;3.70;;;;;;;7.12;57.82;100838.56;5111146;28;20651;-73
2024/01/28 06:52:32;;;;;;;5.03;4.00;;;;;;;7.26;56.43;100851.31;5111306;28;20228;-75
2024/01/28 06:54:59;;;;;;;4.83;2.80;;;;;;;7.44;55.91;100848.78;5110717;28;20204;-75
2024/01/28 06:57:26;;;;;;;9.20;6.63;;;;;;;7.63;55.99;100851.41;5110372;28;20194;-73
2024/01/28 06:59:54;;;;;;;7.73;5.50;;;;;;;7.87;55.54;100851.69;5111310;28;20673;-73
2024/01/28 07:02:24;;;;;;;6.17;4.50;;;;;;;7.97;54.26;100847.22;5110573;28;20198;-73
2024/01/28 07:04:50;;;;;;;6.50;4.77;;;;;;;8.14;52.98;100860.50;5111246;28;20200;-72
2024/01/28 07:07:18;;;;;;;2.93;2.77;;;;;;;8.45;54.94;100856.56;5111237;28;20284;-70
2024/01/28 07:09:44;;;;;;;4.00;3.20;;;;;;;8.61;51.93;100854.09;5111500;28;20757;-73
2024/01/28 07:12:11;;;;;;;4.20;3.80;;;;;;;8.40;52.46;100860.66;5111186;28;20218;-71
2024/01/28 07:14:38;;;;;;;3.53;3.23;;;;;;;8.35;52.76;100857.63;5111564;28;20198;-73
2024/01/28 07:17:07;;;;;;;5.07;4.70;;;;;;;8.15;51.98;100856.03;5111536;28;20247;-71
2024/01/28 07:19:35;;;;;;;3.70;3.40;;;;;;;8.22;52.23;100860.63;5111299;28;20217;-72
2024/01/28 07:22:02;;;;;;;3.33;2.90;;;;;;;8.20;52.75;100859.06;5111303;28;20193;-72
2024/01/28 07:24:29;;;;;;;8.27;2.70;;;;;;;8.28;52.25;100869.78;5110935;28;20194;-71
2024/01/28 07:26:55;;;;;;;4.57;3.33;;;;;;;8.27;52.74;100865.47;5110773;28;20205;-70
2024/01/28 07:29:22;;;;;;;4.83;2.90;;;;;;;8.41;51.73;100868.44;5111263;28;20199;-71
2024/01/28 07:31:51;;;;;;;2.80;2.60;;;;;;;8.47;51.94;100861.72;5110564;28;20251;-71
2024/01/28 07:34:20;;;;;;;3.10;2.90;;;;;;;8.72;51.14;100869.78;5110877;28;20217;-71
2024/01/28 07:36:47;;;;;;;3.70;2.83;;;;;;;8.79;50.77;100872.66;5110951;28;20191;-70
2024/01/28 07:39:14;;;;;;;3.57;3.27;;;;;;;8.86;50.20;100863.94;5110612;28;20194;-70
2024/01/28 07:41:41;;;;;;;15.47;4.07;;;;;;;9.21;51.59;100868.38;5110778;28;20647;-74
2024/01/28 07:44:08;;;;;;;5.43;3.80;;;;;;;9.38;50.61;100870.16;5111196;28;20206;-69
2024/01/28 07:46:35;;;;;;;4.87;3.90;;;;;;;9.59;50.88;100868.84;5110786;28;20199;-64
2024/01/28 07:49:02;;;;;;;6.87;4.57;;;;;;;10.19;51.09;100867.03;5111247;28;20195;-66
2024/01/28 07:51:30;;;;;;;5.03;3.20;;;;;;;10.29;47.76;100868.56;5110851;28;20186;-66
2024/01/28 07:53:56;;;;;;;6.40;4.07;;;;;;;10.49;46.72;100879.75;5110484;28;20587;-64
2024/01/28 07:56:23;;;;;;;4.00;2.67;;;;;;;10.10;54.33;100868.00;5110812;28;20196;-64
2024/01/28 07:58:50;;;;;;;4.43;2.90;;;;;;;10.73;57.46;100882.47;5110521;28;20613;-66
2024/01/28 08:01:17;;;;;;;5.53;4.43;;;;;;;10.77;45.98;100889.09;5110648;28;20215;-71
2024/01/28 08:03:44;;;;;;;4.63;3.23;;;;;;;10.50;45.60;100889.41;5110209;28;20683;-73
2024/01/28 08:06:10;;;;;;;4.20;3.80;;;;;;;10.48;46.18;100888.72;5110348;28;20199;-62
2024/01/28 08:08:38;;;;;;;4.97;3.63;;;;;;;10.42;46.42;100884.06;5111301;28;20200;-63
2024/01/28 08:11:05;;;;;;;4.87;3.60;;;;;;;10.72;45.80;100891.44;5110751;28;20187;-63
2024/01/28 08:13:33;;;;;;;3.57;3.27;;;;;;;10.80;45.32;100886.97;5110767;28;20218;-63
2024/01/28 08:16:03;;;;;;;4.67;4.00;;;;;;;10.81;45.04;100879.81;5110292;28;20229;-62
2024/01/28 08:18:30;;;;;;;10.93;4.13;;;;;;;11.21;45.15;100890.50;5112203;28;20185;-63
2024/01/28 08:20:57;;;;;;;4.50;3.30;;;;;;;11.39;44.45;100893.00;5114020;28;20634;-62
2024/01/28 08:23:25;;;;;;;4.03;3.50;;;;;;;10.85;44.92;100886.47;5114037;28;20196;-64
2024/01/28 08:25:54;;;;;;;4.53;3.13;;;;;;;10.74;45.09;100878.78;5113937;28;20193;-64
2024/01/28 08:28:21;;;;;;;3.87;3.57;;;;;;;10.60;45.92;100888.25;5113806;28;20196;-63
2024/01/28 08:30:47;;;;;;;5.60;3.10;;;;;;;10.73;46.15;100888.63;5113396;28;20223;-62
2024/01/28 08:33:13;;;;;;;5.00;3.37;;;;;;;10.62;47.29;100878.28;5114038;28;20250;-62
2024/01/28 08:35:40;;;;;;;12.87;6.70;;;;;;;10.37;46.46;100886.34;5113348;28;20567;-63
2024/01/28 08:38:07;;;;;;;6.20;4.13;;;;;;;10.94;44.66;100883.66;5113253;28;20257;-63
2024/01/28 08:40:34;;;;;;;4.40;4.10;;;;;;;11.11;44.32;100891.66;5113793;28;20653;-64
2024/01/28 08:43:05;;;;;;;3.27;2.97;;;;;;;11.02;44.42;100888.16;5113641;28;20211;-63
2024/01/28 08:45:32;;;;;;;7.20;3.03;;;;;;;10.86;44.56;100893.44;5113409;28;20212;-66
2024/01/28 08:47:58;;;;;;;4.10;3.70;;;;;;;11.29;43.95;100908.28;5113393;28;20192;-63
2024/01/28 08:50:25;;;;;;;4.07;3.67;;;;;;;11.35;42.93;100915.63;5113861;28;20617;-62
2024/01/28 08:52:52;;;;;;;4.80;2.30;;;;;;;11.02;43.08;100908.59;5113427;28;20218;-63
2024/01/28 08:55:19;;;;;;;2.60;2.20;;;;;;;10.76;43.79;100917.53;5112744;28;20204;-62
2024/01/28 08:57:46;;;;;;;2.50;2.30;;;;;;;10.95;43.94;100919.06;5113070;28;20189;-64
2024/01/28 09:00:16;;;;;;;5.20;2.23;;;;;;;11.55;43.02;100916.94;5113237;28;20229;-64
2024/01/28 09:02:42;;;;;;;4.67;2.20;;;;;;;11.36;42.70;100923.44;5113196;28;20258;-64
2024/01/28 09:05:10;;;;;;;4.17;2.67;;;;;;;10.88;43.05;100924.22;5113013;28;20718;-63
2024/01/28 09:07:36;;;;;;;2.33;2.20;;;;;;;10.65;43.28;100920.50;5113101;28;20673;-63
2024/01/28 09:10:03;;;;;;;3.43;2.00;;;;;;;11.07;42.74;100922.25;5112839;28;20287;-62
2024/01/28 09:12:30;;;;;;;3.03;2.37;;;;;;;11.30;42.26;100916.09;5112816;28;20206;-70
2024/01/28 09:14:57;;;;;;;2.53;2.20;;;;;;;11.02;42.51;100927.22;5112943;28;20197;-70
2024/01/28 09:17:25;;;;;;;5.70;2.20;;;;;;;11.10;42.52;100927.22;5113266;28;20246;-72
2024/01/28 09:19:51;;;;;;;2.00;1.70;;;;;;;10.89;42.84;100927.69;5112968;28;20249;-70
2024/01/28 09:22:18;;;;;;;3.07;2.30;;;;;;;10.93;42.87;100926.34;5113005;28;20249;-71
2024/01/28 09:24:45;;;;;;;2.03;1.93;;;;;;;11.08;42.35;100924.72;5113218;28;20197;-72
2024/01/28 09:27:12;;;;;;;5.73;2.27;;;;;;;11.29;42.09;100925.09;5112495;28;20198;-65
2024/01/28 09:29:39;;;;;;;3.73;2.87;;;;;;;10.98;42.25;100932.00;5111979;28;20191;-65
2024/01/28 09:32:06;;;;;;;3.33;2.67;;;;;;;11.23;41.69;100920.41;5112780;28;20197;-65
2024/01/28 09:34:34;;;;;;;7.80;2.73;;;;;;;10.65;42.18;100927.63;5112411;28;20240;-66
2024/01/28 09:37:01;;;;;;;4.60;2.40;;;;;;;10.81;42.43;100917.03;5109557;27;21084;-69
2024/01/28 09:39:29;;;;;;;6.93;2.47;;;;;;;11.06;41.98;100926.72;5111705;28;20197;-70
2024/01/28 09:42:02;;;;;;;2.23;2.03;;;;;;;11.27;42.66;100924.41;5111564;28;20580;-69
2024/01/28 09:44:29;;;;;;;2.63;2.27;;;;;;;11.12;41.38;100918.09;5091483;28;20198;-69
2024/01/28 09:46:57;;;;;;;3.73;1.93;;;;;;;10.57;42.84;100908.97;5092735;28;20204;-70
2024/01/28 09:49:27;;;;;;;2.13;1.93;;;;;;;10.69;42.39;100907.69;5110810;28;20192;-69
2024/01/28 09:51:55;;;;;;;5.57;2.20;;;;;;;10.74;42.53;100905.38;5111270;28;20299;-70
2024/01/28 09:54:22;;;;;;;3.37;2.50;;;;;;;10.94;42.72;100896.97;5112747;28;20220;-70
2024/01/28 09:56:50;;;;;;;2.43;1.90;;;;;;;11.24;42.60;100906.13;5108228;28;20207;-69
2024/01/28 09:59:16;;;;;;;2.37;1.90;;;;;;;11.17;41.15;100905.13;5111076;28;20246;-66
2024/01/28 10:01:45;;;;;;;2.73;1.70;;;;;;;11.55;39.68;100901.78;5107966;28;20203;-67
2024/01/28 10:04:11;;;;;;;2.20;2.00;;;;;;;11.89;39.43;100894.47;5109906;28;20193;-67
2024/01/28 10:06:38;;;;;;;2.10;2.00;;;;;;;11.81;39.72;100901.63;5110148;28;20198;-65
2024/01/28 10:09:06;;;;;;;2.53;2.33;;;;;;;11.66;39.76;100903.28;5109616;28;20211;-66
2024/01/28 10:11:33;;;;;;;3.20;2.43;;;;;;;11.59;38.99;100902.28;5110715;28;20194;-66
2024/01/28 10:13:59;;;;;;;2.37;2.00;;;;;;;11.36;38.92;100909.28;5109212;28;20582;-67
2024/01/28 10:16:31;;;;;;;3.13;2.93;;;;;;;11.05;40.29;100898.47;5111145;28;20258;-67
2024/01/28 10:18:58;;;;;;;4.67;3.43;;;;;;;11.05;40.69;100901.13;5110588;28;20187;-64
2024/01/28 10:21:25;;;;;;;4.33;3.27;;;;;;;11.25;40.46;100886.50;5110340;28;20258;-64
2024/01/28 10:23:52;;;;;;;2.80;2.60;;;;;;;11.37;39.56;100903.81;5110053;28;20198;-65
2024/01/28 10:26:21;;;;;;;4.77;2.00;;;;;;;11.43;38.78;100897.78;5109760;28;20256;-65
2024/01/28 10:28:48;;;;;;;9.30;3.10;;;;;;;11.55;38.84;100904.44;5108227;28;20253;-66
2024/01/28 10:31:14;;;;;;;4.10;2.57;;;;;;;11.39;39.39;100893.81;5108710;28;20189;-67
2024/01/28 10:33:41;;;;;;;1.83;1.73;;;;;;;11.50;38.86;100898.81;5108445;28;20300;-66
2024/01/28 10:36:09;;;;;;;3.33;1.90;;;;;;;11.59;38.60;100902.28;5109763;28;20190;-66
2024/01/28 10:38:41;;;;;;;4.30;1.70;;;;;;;11.70;37.96;100899.31;5109305;28;20197;-66
2024/01/28 10:41:09;;;;;;;2.60;1.53;;;;;;;11.78;37.65;100900.13;5108585;28;20226;-66
2024/01/28 10:43:40;;;;;;;8.13;2.27;;;;;;;11.54;38.18;100899.28;5109967;28;20247;-65
2024/01/28 10:46:07;;;;;;;2.30;1.53;;;;;;;11.76;37.35;100899.44;5110335;28;20187;-65
2024/01/28 10:48:40;;;;;;;2.27;1.90;;;;;;;11.78;37.31;100905.44;5109411;28;20214;-65
2024/01/28 10:51:09;;;;;;;2.43;2.13;;;;;;;11.63;37.58;100893.81;5110001;28;20271;-65
2024/01/28 10:53:37;;;;;;;4.07;1.90;;;;;;;11.84;37.84;100896.78;5109975;28;20222;-65
2024/01/28 10:56:05;;;;;;;2.47;1.70;;;;;;;12.07;37.42;100886.22;5110303;28;20195;-64
2024/01/28 10:58:31;;;;;;;1.77;1.60;;;;;;;11.85;37.68;100893.13;5109500;28;20662;-64
2024/01/28 11:01:02;;;;;;;11.43;3.17;;;;;;;12.10;37.57;100886.72;5110710;28;20248;-66
2024/01/28 11:03:29;;;;;;;4.83;2.20;;;;;;;11.57;38.66;100889.16;5110184;28;20190;-66
2024/01/28 11:05:56;;;;;;;2.90;2.70;;;;;;;11.12;39.83;100888.84;5110232;28;20190;-65
2024/01/28 11:08:22;;;;;;;2.80;2.23;;;;;;;10.82;40.55;100889.44;5109975;28;20262;-65
2024/01/28 11:10:50;;;;;;;3.03;2.47;;;;;;;10.71;40.18;100892.44;5109631;28;20573;-63
2024/01/28 11:13:16;;;;;;;2.27;2.07;;;;;;;10.47;40.84;100892.38;5109530;28;20188;-64
2024/01/28 11:15:43;;;;;;;11.80;2.40;;;;;;;10.01;40.97;100868.91;5110071;28;20189;-65
2024/01/28 11:18:11;;;;;;;3.30;2.10;;;;;;;9.90;41.70;100887.75;5109841;28;20204;-65
2024/01/28 11:20:38;;;;;;;2.80;2.60;;;;;;;9.65;42.21;100893.91;5109945;28;20515;-64
2024/01/28 11:23:06;;;;;;;3.87;2.27;;;;;;;9.59;43.00;100875.94;5110004;28;20195;-65
2024/01/28 11:25:33;;;;;;;2.97;2.20;;;;;;;9.32;43.76;100876.09;5108789;28;20277;-65
2024/01/28 11:28:01;;;;;;;36.87;5.90;;;;;;;9.47;43.72;100886.00;5109718;28;20334;-66
2024/01/28 11:30:29;;;;;;;3.47;2.50;;;;;;;9.34;44.22;100882.06;5108932;28;20201;-65
2024/01/28 11:33:07;;;;;;;16.63;3.67;;;;;;;9.43;44.17;100883.78;5109859;28;20244;-65